Time;durP1;ratioP1;P1;durP2;ratioP2;P2;SDS_P1;SDS_P2;PMS_P1;PMS_P2;Temp;Humidity;BMP_temperature;BMP_pressure;BME280_temperature;BME280_humidity;BME280_pressure;Samples;Min_cycle;Max_cycle;Signal;HPM_P1;HPM_P2
2023/09/09 00:01:36;;;;;;;;;;;;;;;;;;5057408;28;19917;-22
2023/09/09 00:04:03;;;;;;;;;;;;;;;;;;5057186;28;19924;-22
2023/09/09 00:06:29;;;;;;;;;;;;;;;;;;5057001;28;20344;-21
2023/09/09 00:08:54;;;;;;;;;;;;;;;;;;5056140;28;19913;-22
2023/09/09 00:11:20;;;;;;;;;;;;;;;;;;5057152;28;19919;-21
2023/09/09 00:13:46;;;;;;;;;;;;;;;;;;5057062;28;19912;-22
2023/09/09 00:16:12;;;;;;;;;;;;;;;;;;5057016;28;19912;-22
2023/09/09 00:18:38;;;;;;;;;;;;;;;;;;5057300;28;20352;-21
2023/09/09 00:21:07;;;;;;;;;;;;;;;;;;5057162;28;20217;-20
2023/09/09 00:23:33;;;;;;;;;;;;;;;;;;5056848;28;19909;-22
2023/09/09 00:25:59;;;;;;;;;;;;;;;;;;5056800;28;20255;-22
2023/09/09 00:28:25;;;;;;;;;;;;;;;;;;5056992;28;19909;-21
2023/09/09 00:30:51;;;;;;;;;;;;;;;;;;5056714;28;19909;-20
2023/09/09 00:33:17;;;;;;;;;;;;;;;;;;5056536;28;19909;-20
2023/09/09 00:35:43;;;;;;;;;;;;;;;;;;5056695;28;20255;-23
2023/09/09 00:38:08;;;;;;;;;;;;;;;;;;5056666;28;19909;-20
2023/09/09 00:40:34;;;;;;;;;;;;;;;;;;5056538;28;20007;-21
2023/09/09 00:43:00;;;;;;;;;;;;;;;;;;5055466;28;19955;-22
2023/09/09 00:45:27;;;;;;;;;;;;;;;;;;5056498;28;19908;-20
2023/09/09 00:47:53;;;;;;;;;;;;;;;;;;5056705;28;19909;-21
2023/09/09 00:50:19;;;;;;;;;;;;;;;;;;5056388;28;19920;-21
2023/09/09 00:52:46;;;;;;;;;;;;;;;;;;5056284;28;20007;-23
2023/09/09 00:55:12;;;;;;;;;;;;;;;;;;5057050;28;19919;-20
2023/09/09 00:57:38;;;;;;;;;;;;;;;;;;5056576;28;19908;-21
2023/09/09 01:00:09;;;;;;;;;;;;;;;;;;5056172;28;19959;-22
2023/09/09 01:02:36;;;;;;;;;;;;;;;;;;5055210;28;20358;-21
2023/09/09 01:05:03;;;;;;;;;;;;;;;;;;5055992;28;19928;-20
2023/09/09 01:07:29;;;;;;;;;;;;;;;;;;5056105;28;20282;-23
2023/09/09 01:09:54;;;;;;;;;;;;;;;;;;5056034;28;19920;-21
2023/09/09 01:12:24;;;;;;;;;;;;;;;;;;5056106;28;20024;-21
2023/09/09 01:14:50;;;;;;;;;;;;;;;;;;5054964;28;19996;-22
2023/09/09 01:17:16;;;;;;;;;;;;;;;;;;5055816;28;19908;-20
2023/09/09 01:19:42;;;;;;;;;;;;;;;;;;5056099;28;19908;-20
2023/09/09 01:22:11;;;;;;;;;;;;;;;;;;5055651;28;19999;-22
2023/09/09 01:24:38;;;;;;;;;;;;;;;;;;5054779;28;19959;-20
2023/09/09 01:27:04;;;;;;;;;;;;;;;;;;5054690;28;19921;-22
2023/09/09 01:29:30;;;;;;;;;;;;;;;;;;5055935;28;20007;-21
2023/09/09 01:31:56;;;;;;;;;;;;;;;;;;5055557;28;19966;-21
2023/09/09 01:34:22;;;;;;;;;;;;;;;;;;5055579;28;19909;-21
2023/09/09 01:36:48;;;;;;;;;;;;;;;;;;5055572;28;19909;-21
2023/09/09 01:39:14;;;;;;;;;;;;;;;;;;5055417;28;20426;-22
2023/09/09 01:41:40;;;;;;;;;;;;;;;;;;5055405;28;20003;-22
2023/09/09 01:44:06;;;;;;;;;;;;;;;;;;5054972;28;20229;-25
2023/09/09 01:46:32;;;;;;;;;;;;;;;;;;5055334;28;20326;-22
2023/09/09 01:49:00;;;;;;;;;;;;;;;;;;5054323;28;19932;-23
2023/09/09 01:51:28;;;;;;;;;;;;;;;;;;5055587;28;19931;-22
2023/09/09 01:53:54;;;;;;;;;;;;;;;;;;5055122;28;19913;-21
2023/09/09 01:56:20;;;;;;;;;;;;;;;;;;5055177;28;19915;-21
2023/09/09 01:58:46;;;;;;;;;;;;;;;;;;5055123;28;20232;-23
2023/09/09 02:01:12;;;;;;;;;;;;;;;;;;5055019;28;19958;-21
2023/09/09 02:03:38;;;;;;;;;;;;;;;;;;5055029;28;19999;-22
2023/09/09 02:06:03;;;;;;;;;;;;;;;;;;5053965;28;20014;-22
2023/09/09 02:08:29;;;;;;;;;;;;;;;;;;5053964;28;19915;-20
2023/09/09 02:10:55;;;;;;;;;;;;;;;;;;5055258;28;19948;-21
2023/09/09 02:13:21;;;;;;;;;;;;;;;;;;5054903;28;19916;-20
2023/09/09 02:15:47;;;;;;;;;;;;;;;;;;5055161;28;19920;-21
2023/09/09 02:18:13;;;;;;;;;;;;;;;;;;5054861;28;19909;-24
2023/09/09 02:20:39;;;;;;;;;;;;;;;;;;5054675;28;19912;-22
2023/09/09 02:23:05;;;;;;;;;;;;;;;;;;5054842;28;19909;-22
2023/09/09 02:25:31;;;;;;;;;;;;;;;;;;5055048;28;19940;-22
2023/09/09 02:27:57;;;;;;;;;;;;;;;;;;5054782;28;19952;-22
2023/09/09 02:30:23;;;;;;;;;;;;;;;;;;5054759;28;19963;-20
2023/09/09 02:32:49;;;;;;;;;;;;;;;;;;5054681;28;19917;-22
2023/09/09 02:35:15;;;;;;;;;;;;;;;;;;5054710;28;19962;-20
2023/09/09 02:37:41;;;;;;;;;;;;;;;;;;5053681;28;19958;-22
2023/09/09 02:40:07;;;;;;;;;;;;;;;;;;5054591;28;19917;-23
2023/09/09 02:42:33;;;;;;;;;;;;;;;;;;5054618;28;19948;-22
2023/09/09 02:44:59;;;;;;;;;;;;;;;;;;5054877;28;19920;-22
2023/09/09 02:47:25;;;;;;;;;;;;;;;;;;5054578;28;20038;-22
2023/09/09 02:49:51;;;;;;;;;;;;;;;;;;5053595;28;19920;-21
2023/09/09 02:52:17;;;;;;;;;;;;;;;;;;5054457;28;19974;-21
2023/09/09 02:54:43;;;;;;;;;;;;;;;;;;5054511;28;19915;-21
2023/09/09 02:57:09;;;;;;;;;;;;;;;;;;5057339;28;20327;-23
2023/09/09 02:59:35;;;;;;;;;;;;;;;;;;5058510;28;20394;-22
2023/09/09 03:02:00;;;;;;;;;;;;;;;;;;5058329;28;19966;-22
2023/09/09 03:04:26;;;;;;;;;;;;;;;;;;5058226;28;19916;-21
2023/09/09 03:06:52;;;;;;;;;;;;;;;;;;5057456;28;19916;-22
2023/09/09 03:09:18;;;;;;;;;;;;;;;;;;5058573;28;19905;-22
2023/09/09 03:11:44;;;;;;;;;;;;;;;;;;5058325;28;19913;-21
2023/09/09 03:14:10;;;;;;;;;;;;;;;;;;5057170;28;19905;-21
2023/09/09 03:16:36;;;;;;;;;;;;;;;;;;5057238;28;19909;-21
2023/09/09 03:19:02;;;;;;;;;;;;;;;;;;5058155;28;19905;-21
2023/09/09 03:21:28;;;;;;;;;;;;;;;;;;5058058;28;19970;-22
2023/09/09 03:23:54;;;;;;;;;;;;;;;;;;5058037;28;19966;-22
2023/09/09 03:26:22;;;;;;;;;;;;;;;;;;5058001;28;19916;-22
2023/09/09 03:28:48;;;;;;;;;;;;;;;;;;5058017;28;20001;-23
2023/09/09 03:31:14;;;;;;;;;;;;;;;;;;5057849;28;19991;-21
2023/09/09 03:33:40;;;;;;;;;;;;;;;;;;5058137;28;19909;-22
2023/09/09 03:36:06;;;;;;;;;;;;;;;;;;5057880;28;19909;-22
2023/09/09 03:38:32;;;;;;;;;;;;;;;;;;5058055;28;19919;-20
2023/09/09 03:40:58;;;;;;;;;;;;;;;;;;5057598;28;20378;-20
2023/09/09 03:43:24;;;;;;;;;;;;;;;;;;5057072;28;19912;-21
2023/09/09 03:45:50;;;;;;;;;;;;;;;;;;5057645;28;20015;-21
2023/09/09 03:48:16;;;;;;;;;;;;;;;;;;5057872;28;19963;-21
2023/09/09 03:50:42;;;;;;;;;;;;;;;;;;5057572;28;19909;-23
2023/09/09 03:53:08;;;;;;;;;;;;;;;;;;5057491;28;20018;-21
2023/09/09 03:55:34;;;;;;;;;;;;;;;;;;5057494;28;20143;-22
2023/09/09 03:58:00;;;;;;;;;;;;;;;;;;5057466;28;19913;-20
2023/09/09 04:00:25;;;;;;;;;;;;;;;;;;5057586;28;19924;-20
2023/09/09 04:02:52;;;;;;;;;;;;;;;;;;5057262;28;19909;-20
2023/09/09 04:05:18;;;;;;;;;;;;;;;;;;5057077;28;20015;-22
2023/09/09 04:07:44;;;;;;;;;;;;;;;;;;5056475;28;19959;-21
2023/09/09 04:10:11;;;;;;;;;;;;;;;;;;5057089;28;19909;-22
2023/09/09 04:12:37;;;;;;;;;;;;;;;;;;5057096;28;19908;-21
2023/09/09 04:15:03;;;;;;;;;;;;;;;;;;5057055;28;20247;-21
2023/09/09 04:17:29;;;;;;;;;;;;;;;;;;5057045;28;20371;-21
2023/09/09 04:19:56;;;;;;;;;;;;;;;;;;5056937;28;19940;-21
2023/09/09 04:22:22;;;;;;;;;;;;;;;;;;5057116;28;20398;-21
2023/09/09 04:24:48;;;;;;;;;;;;;;;;;;5056939;28;19948;-21
2023/09/09 04:27:14;;;;;;;;;;;;;;;;;;5057121;28;19913;-22
2023/09/09 04:29:41;;;;;;;;;;;;;;;;;;5056893;28;19931;-20
2023/09/09 04:32:07;;;;;;;;;;;;;;;;;;5057072;28;19912;-22
2023/09/09 04:34:33;;;;;;;;;;;;;;;;;;5055832;28;20278;-20
2023/09/09 04:36:58;;;;;;;;;;;;;;;;;;5056742;28;19916;-20
2023/09/09 04:39:24;;;;;;;;;;;;;;;;;;5056943;28;19948;-20
2023/09/09 04:41:50;;;;;;;;;;;;;;;;;;5056491;28;20355;-21
2023/09/09 04:44:16;;;;;;;;;;;;;;;;;;5056540;28;19915;-21
2023/09/09 04:46:42;;;;;;;;;;;;;;;;;;5056574;28;19916;-21
2023/09/09 04:49:08;;;;;;;;;;;;;;;;;;5056453;28;19909;-21
2023/09/09 04:51:34;;;;;;;;;;;;;;;;;;5056691;28;20366;-22
2023/09/09 04:54:00;;;;;;;;;;;;;;;;;;5056265;28;20298;-20
2023/09/09 04:56:26;;;;;;;;;;;;;;;;;;5056301;28;19982;-20
2023/09/09 04:58:52;;;;;;;;;;;;;;;;;;5056300;28;19909;-21
2023/09/09 05:01:18;;;;;;;;;;;;;;;;;;5055365;28;20011;-23
2023/09/09 05:03:44;;;;;;;;;;;;;;;;;;5056106;28;19913;-22
2023/09/09 05:06:10;;;;;;;;;;;;;;;;;;5056196;28;19978;-21
2023/09/09 05:08:36;;;;;;;;;;;;;;;;;;5056360;28;19909;-21
2023/09/09 05:11:02;;;;;;;;;;;;;;;;;;5056042;28;20298;-21
2023/09/09 05:13:28;;;;;;;;;;;;;;;;;;5055931;28;20003;-21
2023/09/09 05:15:54;;;;;;;;;;;;;;;;;;5055957;28;20002;-21
2023/09/09 05:18:20;;;;;;;;;;;;;;;;;;5056183;28;19915;-20
2023/09/09 05:20:46;;;;;;;;;;;;;;;;;;5054737;28;19917;-21
2023/09/09 05:23:12;;;;;;;;;;;;;;;;;;5055836;28;20019;-21
2023/09/09 05:25:38;;;;;;;;;;;;;;;;;;5055773;28;19912;-22
2023/09/09 05:28:04;;;;;;;;;;;;;;;;;;5055687;28;19917;-21
2023/09/09 05:30:30;;;;;;;;;;;;;;;;;;5055679;28;19909;-21
2023/09/09 05:32:55;;;;;;;;;;;;;;;;;;5056086;28;19909;-21
2023/09/09 05:35:21;;;;;;;;;;;;;;;;;;5055557;28;20009;-21
2023/09/09 05:37:47;;;;;;;;;;;;;;;;;;5055634;28;19920;-22
2023/09/09 05:40:13;;;;;;;;;;;;;;;;;;5055430;28;19928;-21
2023/09/09 05:42:39;;;;;;;;;;;;;;;;;;5055424;28;19920;-21
2023/09/09 05:45:05;;;;;;;;;;;;;;;;;;5055443;28;19909;-21
2023/09/09 05:47:31;;;;;;;;;;;;;;;;;;5055577;28;19920;-21
2023/09/09 05:49:57;;;;;;;;;;;;;;;;;;5055328;28;20228;-20
2023/09/09 05:52:23;;;;;;;;;;;;;;;;;;5055362;28;19991;-21
2023/09/09 05:54:50;;;;;;;;;;;;;;;;;;5055251;28;19909;-21
2023/09/09 05:57:15;;;;;;;;;;;;;;;;;;5055395;28;19940;-20
2023/09/09 05:59:41;;;;;;;;;;;;;;;;;;5055151;28;19952;-22
2023/09/09 06:02:07;;;;;;;;;;;;;;;;;;5055020;28;19925;-21
2023/09/09 06:04:33;;;;;;;;;;;;;;;;;;5054878;28;20034;-22
2023/09/09 06:06:59;;;;;;;;;;;;;;;;;;5055328;28;20015;-21
2023/09/09 06:09:25;;;;;;;;;;;;;;;;;;5055186;28;19963;-20
2023/09/09 06:11:51;;;;;;;;;;;;;;;;;;5055157;28;19913;-20
2023/09/09 06:14:17;;;;;;;;;;;;;;;;;;5055168;28;19909;-20
2023/09/09 06:16:43;;;;;;;;;;;;;;;;;;5054905;28;19908;-20
2023/09/09 06:19:09;;;;;;;;;;;;;;;;;;5053846;28;19938;-22
2023/09/09 06:21:35;;;;;;;;;;;;;;;;;;5054795;28;20003;-21
2023/09/09 06:24:02;;;;;;;;;;;;;;;;;;5054789;28;20370;-21
2023/09/09 06:26:33;;;;;;;;;;;;;;;;;;5055023;28;20276;-21
2023/09/09 06:28:59;;;;;;;;;;;;;;;;;;5054739;28;19908;-23
2023/09/09 06:31:25;;;;;;;;;;;;;;;;;;5054369;28;20051;-22
2023/09/09 06:33:51;;;;;;;;;;;;;;;;;;5054651;28;19963;-21
2023/09/09 06:36:20;;;;;;;;;;;;;;;;;;5054673;28;19909;-19
2023/09/09 06:38:46;;;;;;;;;;;;;;;;;;5054936;28;20320;-21
2023/09/09 06:41:13;;;;;;;;;;;;;;;;;;5054565;28;20252;-22
2023/09/09 06:43:39;;;;;;;;;;;;;;;;;;5054822;28;20332;-21
2023/09/09 06:46:05;;;;;;;;;;;;;;;;;;5054631;28;19912;-22
2023/09/09 06:48:31;;;;;;;;;;;;;;;;;;5054626;28;20367;-22
2023/09/09 06:50:56;;;;;;;;;;;;;;;;;;5054849;28;20255;-20
2023/09/09 06:53:24;;;;;;;;;;;;;;;;;;5054720;28;19955;-21
2023/09/09 06:55:50;;;;;;;;;;;;;;;;;;5054807;28;20258;-21
2023/09/09 06:58:16;;;;;;;;;;;;;;;;;;5054447;28;19916;-20
2023/09/09 07:00:42;;;;;;;;;;;;;;;;;;5054627;28;19913;-19
2023/09/09 07:03:08;;;;;;;;;;;;;;;;;;5053372;28;20343;-20
2023/09/09 07:05:34;;;;;;;;;;;;;;;;;;5053182;28;20021;-21
2023/09/09 07:08:00;;;;;;;;;;;;;;;;;;5054404;28;20373;-22
2023/09/09 07:10:26;;;;;;;;;;;;;;;;;;5054902;28;19908;-20
2023/09/09 07:12:52;;;;;;;;;;;;;;;;;;5053246;28;19931;-22
2023/09/09 07:15:18;;;;;;;;;;;;;;;;;;5054539;28;19917;-29
2023/09/09 07:17:44;;;;;;;;;;;;;;;;;;5054381;28;20289;-20
2023/09/09 07:20:10;;;;;;;;;;;;;;;;;;5054483;28;19909;-22
2023/09/09 07:22:36;;;;;;;;;;;;;;;;;;5054481;28;19942;-21
2023/09/09 07:25:02;;;;;;;;;;;;;;;;;;5054221;28;20362;-21
2023/09/09 07:27:28;;;;;;;;;;;;;;;;;;5054431;28;19951;-20
2023/09/09 07:29:54;;;;;;;;;;;;;;;;;;5054203;28;19935;-21
2023/09/09 07:32:20;;;;;;;;;;;;;;;;;;5053104;28;19909;-21
2023/09/09 07:34:46;;;;;;;;;;;;;;;;;;5054155;28;19962;-21
2023/09/09 07:37:12;;;;;;;;;;;;;;;;;;5054075;28;19909;-21
2023/09/09 07:39:38;;;;;;;;;;;;;;;;;;5054127;28;19908;-22
2023/09/09 07:42:04;;;;;;;;;;;;;;;;;;5053932;28;19924;-21
2023/09/09 07:44:30;;;;;;;;;;;;;;;;;;5057141;28;19909;-23
2023/09/09 07:46:56;;;;;;;;;;;;;;;;;;5057655;28;19905;-21
2023/09/09 07:49:22;;;;;;;;;;;;;;;;;;5057836;28;19909;-20
2023/09/09 07:51:48;;;;;;;;;;;;;;;;;;5057427;28;19988;-20
2023/09/09 07:54:14;;;;;;;;;;;;;;;;;;5057445;28;19948;-22
2023/09/09 07:56:42;;;;;;;;;;;;;;;;;;5057487;28;19966;-21
2023/09/09 07:59:08;;;;;;;;;;;;;;;;;;5057650;28;19909;-20
2023/09/09 08:01:34;;;;;;;;;;;;;;;;;;5057637;28;19919;-20
2023/09/09 08:04:00;;;;;;;;;;;;;;;;;;5057525;28;19916;-22
2023/09/09 08:06:26;;;;;;;;;;;;;;;;;;5057129;28;19921;-22
2023/09/09 08:08:52;;;;;;;;;;;;;;;;;;5057276;28;20001;-21
2023/09/09 08:11:18;;;;;;;;;;;;;;;;;;5057149;28;19983;-23
2023/09/09 08:13:44;;;;;;;;;;;;;;;;;;5057342;28;20346;-20
2023/09/09 08:16:10;;;;;;;;;;;;;;;;;;5056132;28;20248;-20
2023/09/09 08:18:36;;;;;;;;;;;;;;;;;;5057085;28;20003;-21
2023/09/09 08:21:03;;;;;;;;;;;;;;;;;;5056992;28;19920;-22
2023/09/09 08:23:29;;;;;;;;;;;;;;;;;;5056881;28;19999;-20
2023/09/09 08:25:55;;;;;;;;;;;;;;;;;;5056866;28;19979;-21
2023/09/09 08:28:21;;;;;;;;;;;;;;;;;;5057119;28;20004;-21
2023/09/09 08:30:47;;;;;;;;;;;;;;;;;;5056852;28;19948;-21
2023/09/09 08:33:13;;;;;;;;;;;;;;;;;;5056733;28;20410;-20
2023/09/09 08:35:39;;;;;;;;;;;;;;;;;;5056774;28;20012;-21
2023/09/09 08:38:05;;;;;;;;;;;;;;;;;;5056949;28;19908;-23
2023/09/09 08:40:34;;;;;;;;;;;;;;;;;;5056578;28;20331;-21
2023/09/09 08:43:00;;;;;;;;;;;;;;;;;;5056575;28;19916;-21
2023/09/09 08:45:26;;;;;;;;;;;;;;;;;;5056590;28;19912;-20
2023/09/09 08:47:52;;;;;;;;;;;;;;;;;;5055621;28;19908;-21
2023/09/09 08:50:18;;;;;;;;;;;;;;;;;;5056423;28;19908;-21
2023/09/09 08:52:44;;;;;;;;;;;;;;;;;;5056402;28;19970;-20
2023/09/09 08:55:10;;;;;;;;;;;;;;;;;;5056125;28;19916;-20
2023/09/09 08:57:36;;;;;;;;;;;;;;;;;;5056236;28;19996;-21
2023/09/09 09:00:03;;;;;;;;;;;;;;;;;;5056482;28;19944;-20
2023/09/09 09:02:29;;;;;;;;;;;;;;;;;;5056181;28;20328;-21
2023/09/09 09:04:55;;;;;;;;;;;;;;;;;;5056046;28;19921;-21
2023/09/09 09:07:21;;;;;;;;;;;;;;;;;;5056398;28;19909;-22
2023/09/09 09:09:47;;;;;;;;;;;;;;;;;;5056029;28;19908;-24
2023/09/09 09:12:14;;;;;;;;;;;;;;;;;;5055975;28;19909;-21
2023/09/09 09:14:39;;;;;;;;;;;;;;;;;;5056026;28;19970;-21
2023/09/09 09:17:05;;;;;;;;;;;;;;;;;;5056251;28;19916;-20
2023/09/09 09:19:31;;;;;;;;;;;;;;;;;;5055911;28;19999;-21
2023/09/09 09:21:57;;;;;;;;;;;;;;;;;;5055944;28;19993;-22
2023/09/09 09:24:23;;;;;;;;;;;;;;;;;;5056054;28;19958;-21
2023/09/09 09:26:49;;;;;;;;;;;;;;;;;;5055789;28;19999;-21
2023/09/09 09:29:15;;;;;;;;;;;;;;;;;;5055681;28;19980;-20
2023/09/09 09:31:41;;;;;;;;;;;;;;;;;;5055966;28;20353;-21
2023/09/09 09:34:07;;;;;;;;;;;;;;;;;;5055828;28;19948;-20
2023/09/09 09:36:33;;;;;;;;;;;;;;;;;;5055586;28;19905;-22
2023/09/09 09:38:59;;;;;;;;;;;;;;;;;;5055608;28;20237;-21
2023/09/09 09:41:25;;;;;;;;;;;;;;;;;;5055681;28;20251;-21
2023/09/09 09:43:51;;;;;;;;;;;;;;;;;;5054388;28;19967;-23
2023/09/09 09:46:17;;;;;;;;;;;;;;;;;;5055674;28;20314;-20
2023/09/09 09:48:43;;;;;;;;;;;;;;;;;;5055270;28;19909;-22
2023/09/09 09:51:09;;;;;;;;;;;;;;;;;;5054269;28;19920;-22
2023/09/09 09:53:35;;;;;;;;;;;;;;;;;;5055196;28;19962;-22
2023/09/09 09:56:02;;;;;;;;;;;;;;;;;;5055182;28;20350;-21
2023/09/09 09:58:28;;;;;;;;;;;;;;;;;;5055147;28;19909;-21
2023/09/09 10:00:54;;;;;;;;;;;;;;;;;;5055068;28;20189;-21
2023/09/09 10:03:20;;;;;;;;;;;;;;;;;;5055029;28;19915;-21
2023/09/09 10:05:47;;;;;;;;;;;;;;;;;;5054361;28;19924;-22
2023/09/09 10:08:13;;;;;;;;;;;;;;;;;;5055339;28;19966;-21
2023/09/09 10:10:39;;;;;;;;;;;;;;;;;;5055054;28;20290;-21
2023/09/09 10:13:05;;;;;;;;;;;;;;;;;;5054975;28;20347;-22
2023/09/09 10:15:30;;;;;;;;;;;;;;;;;;5055184;28;19909;-21
2023/09/09 10:17:58;;;;;;;;;;;;;;;;;;5054150;28;21306;-22
2023/09/09 10:20:24;;;;;;;;;;;;;;;;;;5055047;28;19983;-20
2023/09/09 10:22:53;;;;;;;;;;;;;;;;;;5055046;28;20087;-22
2023/09/09 10:25:19;;;;;;;;;;;;;;;;;;5054707;28;19920;-21
2023/09/09 10:27:45;;;;;;;;;;;;;;;;;;5055004;28;19913;-20
2023/09/09 10:30:11;;;;;;;;;;;;;;;;;;5054731;28;20265;-21
2023/09/09 10:32:37;;;;;;;;;;;;;;;;;;5054664;28;19927;-20
2023/09/09 10:35:03;;;;;;;;;;;;;;;;;;5053691;28;19944;-21
2023/09/09 10:37:29;;;;;;;;;;;;;;;;;;5054717;28;20073;-22
2023/09/09 10:39:55;;;;;;;;;;;;;;;;;;5054696;28;19913;-22
2023/09/09 10:42:20;;;;;;;;;;;;;;;;;;5054508;28;20363;-21
2023/09/09 10:44:47;;;;;;;;;;;;;;;;;;5054891;28;19955;-20
2023/09/09 10:47:13;;;;;;;;;;;;;;;;;;5053624;28;19955;-22
2023/09/09 10:49:39;;;;;;;;;;;;;;;;;;5054595;28;19917;-21
2023/09/09 10:52:05;;;;;;;;;;;;;;;;;;5054512;28;19913;-21
2023/09/09 10:54:31;;;;;;;;;;;;;;;;;;5055188;28;19909;-21
2023/09/09 10:57:02;;;;;;;;;;;;;;;;;;5053540;28;19960;-22
2023/09/09 10:59:28;;;;;;;;;;;;;;;;;;5054775;28;20358;-20
2023/09/09 11:01:54;;;;;;;;;;;;;;;;;;5054352;28;20290;-21
2023/09/09 11:04:20;;;;;;;;;;;;;;;;;;5054267;28;19909;-22
2023/09/09 11:06:46;;;;;;;;;;;;;;;;;;5054452;28;20324;-21
2023/09/09 11:09:12;;;;;;;;;;;;;;;;;;5054404;28;19905;-21
2023/09/09 11:11:38;;;;;;;;;;;;;;;;;;5054585;28;19916;-20
2023/09/09 11:14:04;;;;;;;;;;;;;;;;;;5054227;28;19915;-20
2023/09/09 11:16:33;;;;;;;;;;;;;;;;;;5054422;28;19963;-20
2023/09/09 11:18:59;;;;;;;;;;;;;;;;;;5058187;28;20229;-23
2023/09/09 11:21:25;;;;;;;;;;;;;;;;;;5058353;28;19923;-21
2023/09/09 11:23:51;;;;;;;;;;;;;;;;;;5058001;28;20283;-20
2023/09/09 11:26:17;;;;;;;;;;;;;;;;;;5058281;28;19919;-20
2023/09/09 11:28:43;;;;;;;;;;;;;;;;;;5058279;28;19909;-21
2023/09/09 11:31:08;;;;;;;;;;;;;;;;;;5057926;28;19916;-20
2023/09/09 11:33:35;;;;;;;;;;;;;;;;;;5057844;28;19944;-21
2023/09/09 11:36:00;;;;;;;;;;;;;;;;;;5057826;28;19960;-21
2023/09/09 11:38:26;;;;;;;;;;;;;;;;;;5058043;28;19909;-20
2023/09/09 11:40:52;;;;;;;;;;;;;;;;;;5057814;28;19913;-20
2023/09/09 11:43:18;;;;;;;;;;;;;;;;;;5057755;28;19917;-21
2023/09/09 11:45:44;;;;;;;;;;;;;;;;;;5057979;28;19969;-22
2023/09/09 11:48:13;;;;;;;;;;;;;;;;;;5057666;28;20349;-21
2023/09/09 11:50:39;;;;;;;;;;;;;;;;;;5057897;28;19909;-21
2023/09/09 11:53:05;;;;;;;;;;;;;;;;;;5057510;28;19950;-22
2023/09/09 11:55:31;;;;;;;;;;;;;;;;;;5057502;28;19916;-21
2023/09/09 11:57:57;;;;;;;;;;;;;;;;;;5057478;28;19909;-20
2023/09/09 12:00:23;;;;;;;;;;;;;;;;;;5057321;28;19932;-21
2023/09/09 12:02:49;;;;;;;;;;;;;;;;;;5057512;28;19944;-21
2023/09/09 12:05:15;;;;;;;;;;;;;;;;;;5057086;28;19925;-21
2023/09/09 12:07:41;;;;;;;;;;;;;;;;;;5057363;28;20004;-21
2023/09/09 12:10:07;;;;;;;;;;;;;;;;;;5057314;28;19959;-22
2023/09/09 12:12:33;;;;;;;;;;;;;;;;;;5057305;28;19917;-22
2023/09/09 12:14:59;;;;;;;;;;;;;;;;;;5057170;28;20373;-20
2023/09/09 12:17:25;;;;;;;;;;;;;;;;;;5057361;28;20305;-21
2023/09/09 12:19:51;;;;;;;;;;;;;;;;;;5057423;28;19909;-23
2023/09/09 12:22:17;;;;;;;;;;;;;;;;;;5055901;28;19913;-21
2023/09/09 12:24:43;;;;;;;;;;;;;;;;;;5057027;28;19909;-21
2023/09/09 12:27:09;;;;;;;;;;;;;;;;;;5057248;28;19919;-20
2023/09/09 12:29:35;;;;;;;;;;;;;;;;;;5056321;28;20343;-21
2023/09/09 12:32:01;;;;;;;;;;;;;;;;;;5057073;28;19912;-21
2023/09/09 12:34:27;;;;;;;;;;;;;;;;;;5056846;28;20003;-20
2023/09/09 12:36:53;;;;;;;;;;;;;;;;;;5057081;28;19958;-22
2023/09/09 12:39:20;;;;;;;;;;;;;;;;;;5056708;28;19912;-20
2023/09/09 12:41:46;;;;;;;;;;;;;;;;;;5056473;28;19913;-22
2023/09/09 12:44:12;;;;;;;;;;;;;;;;;;5056627;28;19908;-21
2023/09/09 12:46:38;;;;;;;;;;;;;;;;;;5056779;28;19909;-20
2023/09/09 12:49:05;;;;;;;;;;;;;;;;;;5056819;28;19917;-20
2023/09/09 12:51:35;;;;;;;;;;;;;;;;;;5056473;28;19905;-20
2023/09/09 12:54:01;;;;;;;;;;;;;;;;;;5056392;28;19913;-21
2023/09/09 12:56:27;;;;;;;;;;;;;;;;;;5056645;28;19924;-23
2023/09/09 12:58:53;;;;;;;;;;;;;;;;;;5056615;28;19908;-22
2023/09/09 13:01:19;;;;;;;;;;;;;;;;;;5056278;28;19912;-21
2023/09/09 13:03:45;;;;;;;;;;;;;;;;;;5056217;28;19972;-20
2023/09/09 13:06:11;;;;;;;;;;;;;;;;;;5056123;28;20356;-21
2023/09/09 13:08:37;;;;;;;;;;;;;;;;;;5056201;28;19909;-22
2023/09/09 13:11:03;;;;;;;;;;;;;;;;;;5055154;28;19909;-22
2023/09/09 13:13:29;;;;;;;;;;;;;;;;;;5056052;28;19909;-22
2023/09/09 13:15:55;;;;;;;;;;;;;;;;;;5056055;28;20347;-22
2023/09/09 13:18:21;;;;;;;;;;;;;;;;;;5055973;28;20260;-21
2023/09/09 13:20:47;;;;;;;;;;;;;;;;;;5054871;28;20209;-20
2023/09/09 13:23:12;;;;;;;;;;;;;;;;;;5056049;28;19909;-23
2023/09/09 13:25:38;;;;;;;;;;;;;;;;;;5055846;28;19908;-21
2023/09/09 13:28:04;;;;;;;;;;;;;;;;;;5055844;28;19917;-23
2023/09/09 13:30:30;;;;;;;;;;;;;;;;;;5055998;28;19916;-21
2023/09/09 13:32:56;;;;;;;;;;;;;;;;;;5055900;28;20302;-21
2023/09/09 13:35:22;;;;;;;;;;;;;;;;;;5055630;28;19909;-22
2023/09/09 13:37:48;;;;;;;;;;;;;;;;;;5055612;28;19915;-22
2023/09/09 13:40:14;;;;;;;;;;;;;;;;;;5054827;28;19913;-22
2023/09/09 13:42:40;;;;;;;;;;;;;;;;;;5054237;28;19920;-22
2023/09/09 13:45:06;;;;;;;;;;;;;;;;;;5055795;28;19909;-21
2023/09/09 13:47:32;;;;;;;;;;;;;;;;;;5055397;28;19952;-22
2023/09/09 13:49:58;;;;;;;;;;;;;;;;;;5055712;28;19995;-21
2023/09/09 13:52:24;;;;;;;;;;;;;;;;;;5055294;28;20322;-22
2023/09/09 13:54:50;;;;;;;;;;;;;;;;;;5054332;28;19913;-22
2023/09/09 13:57:16;;;;;;;;;;;;;;;;;;5055272;28;19910;-21
2023/09/09 13:59:42;;;;;;;;;;;;;;;;;;5055214;28;19976;-21
2023/09/09 14:02:08;;;;;;;;;;;;;;;;;;5055007;28;19919;-20
2023/09/09 14:04:34;;;;;;;;;;;;;;;;;;5053986;28;19916;-21
2023/09/09 14:07:00;;;;;;;;;;;;;;;;;;5054208;28;19908;-22
2023/09/09 14:09:26;;;;;;;;;;;;;;;;;;5055034;28;19935;-23
2023/09/09 14:11:53;;;;;;;;;;;;;;;;;;5055019;28;19908;-21
2023/09/09 14:14:19;;;;;;;;;;;;;;;;;;5055311;28;19909;-21
2023/09/09 14:16:45;;;;;;;;;;;;;;;;;;5055235;28;19959;-20
2023/09/09 14:19:11;;;;;;;;;;;;;;;;;;5055202;28;19948;-22
2023/09/09 14:21:36;;;;;;;;;;;;;;;;;;5054801;28;20366;-22
2023/09/09 14:24:02;;;;;;;;;;;;;;;;;;5054840;28;19947;-23
2023/09/09 14:26:28;;;;;;;;;;;;;;;;;;5054815;28;19909;-22
2023/09/09 14:28:54;;;;;;;;;;;;;;;;;;5054806;28;19948;-22
2023/09/09 14:31:20;;;;;;;;;;;;;;;;;;5054755;28;19944;-20
2023/09/09 14:33:46;;;;;;;;;;;;;;;;;;5054684;28;19909;-22
2023/09/09 14:36:12;;;;;;;;;;;;;;;;;;5053745;28;20344;-21
2023/09/09 14:38:38;;;;;;;;;;;;;;;;;;5055012;28;19915;-22
2023/09/09 14:41:04;;;;;;;;;;;;;;;;;;5054610;28;19916;-21
2023/09/09 14:43:32;;;;;;;;;;;;;;;;;;5054609;28;19909;-23
2023/09/09 14:45:58;;;;;;;;;;;;;;;;;;5054913;28;19909;-22
2023/09/09 14:48:24;;;;;;;;;;;;;;;;;;5054637;28;19909;-21
2023/09/09 14:50:50;;;;;;;;;;;;;;;;;;5054614;28;19909;-21
2023/09/09 14:53:16;;;;;;;;;;;;;;;;;;5057743;28;20004;-20
2023/09/09 14:55:42;;;;;;;;;;;;;;;;;;5058890;28;19967;-21
2023/09/09 14:58:08;;;;;;;;;;;;;;;;;;5057635;28;19912;-22
2023/09/09 15:00:34;;;;;;;;;;;;;;;;;;5058532;28;19939;-23
2023/09/09 15:03:00;;;;;;;;;;;;;;;;;;5058481;28;19935;-20
2023/09/09 15:05:26;;;;;;;;;;;;;;;;;;5058315;28;19932;-21
2023/09/09 15:07:52;;;;;;;;;;;;;;;;;;5058734;28;19995;-20
2023/09/09 15:10:18;;;;;;;;;;;;;;;;;;5058712;28;20221;-22
2023/09/09 15:12:44;;;;;;;;;;;;;;;;;;5057324;28;19920;-22
2023/09/09 15:15:09;;;;;;;;;;;;;;;;;;5058328;28;20236;-21
2023/09/09 15:17:35;;;;;;;;;;;;;;;;;;5058215;28;19909;-23
2023/09/09 15:20:05;;;;;;;;;;;;;;;;;;5058208;28;19909;-21
2023/09/09 15:22:31;;;;;;;;;;;;;;;;;;5056998;28;19948;-22
2023/09/09 15:24:57;;;;;;;;;;;;;;;;;;5058163;28;19998;-22
2023/09/09 15:27:23;;;;;;;;;;;;;;;;;;5058061;28;19963;-21
2023/09/09 15:29:50;;;;;;;;;;;;;;;;;;5058059;28;20007;-22
2023/09/09 15:32:16;;;;;;;;;;;;;;;;;;5057910;28;19908;-21
2023/09/09 15:34:42;;;;;;;;;;;;;;;;;;5057956;28;19909;-23
2023/09/09 15:37:08;;;;;;;;;;;;;;;;;;5058157;28;20397;-22
2023/09/09 15:39:34;;;;;;;;;;;;;;;;;;5058039;28;19951;-23
2023/09/09 15:42:00;;;;;;;;;;;;;;;;;;5057714;28;19924;-22
2023/09/09 15:44:26;;;;;;;;;;;;;;;;;;5056809;28;20267;-22
2023/09/09 15:46:52;;;;;;;;;;;;;;;;;;5058052;28;20325;-22
2023/09/09 15:49:18;;;;;;;;;;;;;;;;;;5057995;28;19955;-20
2023/09/09 15:51:44;;;;;;;;;;;;;;;;;;5057664;28;19916;-22
2023/09/09 15:54:10;;;;;;;;;;;;;;;;;;5056590;28;19908;-22
2023/09/09 15:56:36;;;;;;;;;;;;;;;;;;5057590;28;19904;-23
2023/09/09 15:59:02;;;;;;;;;;;;;;;;;;5057773;28;19913;-22
2023/09/09 16:01:28;;;;;;;;;;;;;;;;;;5057617;28;19913;-22
2023/09/09 16:03:54;;;;;;;;;;;;;;;;;;5056628;28;20306;-21
2023/09/09 16:06:19;;;;;;;;;;;;;;;;;;5056189;28;20253;-22
2023/09/09 16:08:45;;;;;;;;;;;;;;;;;;5057305;28;19919;-21
2023/09/09 16:11:11;;;;;;;;;;;;;;;;;;5057644;28;19913;-21
2023/09/09 16:13:37;;;;;;;;;;;;;;;;;;5057143;28;20362;-22
2023/09/09 16:16:03;;;;;;;;;;;;;;;;;;5057465;28;19958;-23
2023/09/09 16:18:29;;;;;;;;;;;;;;;;;;5056122;28;19909;-22
2023/09/09 16:20:55;;;;;;;;;;;;;;;;;;5057041;28;19912;-27
2023/09/09 16:23:21;;;;;;;;;;;;;;;;;;5057241;28;19915;-22
2023/09/09 16:25:47;;;;;;;;;;;;;;;;;;5057024;28;19909;-20
2023/09/09 16:28:13;;;;;;;;;;;;;;;;;;5057222;28;20395;-22
2023/09/09 16:30:39;;;;;;;;;;;;;;;;;;5057194;28;19916;-23
2023/09/09 16:33:05;;;;;;;;;;;;;;;;;;5056762;28;19913;-23
2023/09/09 16:35:31;;;;;;;;;;;;;;;;;;5057106;28;19913;-20
2023/09/09 16:37:57;;;;;;;;;;;;;;;;;;5056823;28;19919;-23